Time;durP1;ratioP1;P1;durP2;ratioP2;P2;SDS_P1;SDS_P2;PMS_P1;PMS_P2;Temp;Humidity;BMP_temperature;BMP_pressure;BME280_temperature;BME280_humidity;BME280_pressure;Samples;Min_cycle;Max_cycle;Signal;HPM_P1;HPM_P2
2022/11/24 00:01:03;;;;;;;4.45;3.78;;;;;;;;;;5110556;28;20027;-62
2022/11/24 00:03:29;;;;;;;5.55;3.78;;;;;;;;;;5110937;28;20421;-64
2022/11/24 00:05:54;;;;;;;6.22;3.97;;;;;;;;;;5095135;28;20099;-66
2022/11/24 00:08:20;;;;;;;5.90;3.80;;;;;;;;;;5095323;28;20027;-66
2022/11/24 00:10:45;;;;;;;5.78;4.13;;;;;;;;;;5095183;28;20353;-67
2022/11/24 00:13:10;;;;;;;6.90;4.05;;;;;;;;;;5094570;28;20016;-66
2022/11/24 00:15:36;;;;;;;6.50;4.60;;;;;;;;;;5110721;28;20161;-65
2022/11/24 00:18:02;;;;;;;9.15;4.85;;;;;;;;;;5110769;28;20035;-66
2022/11/24 00:20:27;;;;;;;8.05;4.88;;;;;;;;;;5094808;28;20121;-68
2022/11/24 00:22:53;;;;;;;7.10;4.13;;;;;;;;;;5094887;28;20484;-68
2022/11/24 00:25:18;;;;;;;5.93;4.00;;;;;;;;;;5094774;28;20016;-68
2022/11/24 00:27:44;;;;;;;7.10;4.75;;;;;;;;;;5094950;28;20107;-67
2022/11/24 00:30:09;;;;;;;5.45;3.35;;;;;;;;;;5094877;28;20020;-65
2022/11/24 00:32:35;;;;;;;7.88;3.63;;;;;;;;;;5110380;28;20024;-67
2022/11/24 00:35:00;;;;;;;7.35;4.32;;;;;;;;;;5110097;28;20555;-67
2022/11/24 00:37:25;;;;;;;6.60;3.88;;;;;;;;;;5094675;28;20016;-67
2022/11/24 00:39:51;;;;;;;4.82;3.80;;;;;;;;;;5094778;28;20377;-67
2022/11/24 00:42:17;;;;;;;7.13;4.68;;;;;;;;;;5094622;28;20028;-68
2022/11/24 00:44:42;;;;;;;6.95;4.05;;;;;;;;;;5094572;28;20579;-68
2022/11/24 00:47:08;;;;;;;6.03;4.80;;;;;;;;;;5094358;28;20081;-66
2022/11/24 00:49:34;;;;;;;8.15;4.70;;;;;;;;;;5094404;28;20020;-66
2022/11/24 00:52:00;;;;;;;7.18;4.03;;;;;;;;;;5094218;28;20388;-68
2022/11/24 00:54:25;;;;;;;6.25;4.53;;;;;;;;;;5094376;28;20027;-68
2022/11/24 00:56:51;;;;;;;5.57;3.50;;;;;;;;;;5094197;28;20072;-66
2022/11/24 00:59:16;;;;;;;6.80;5.03;;;;;;;;;;5109765;28;20020;-67
2022/11/24 01:01:42;;;;;;;7.80;4.47;;;;;;;;;;5093787;28;20023;-68
2022/11/24 01:04:07;;;;;;;5.82;4.28;;;;;;;;;;5109828;28;20473;-68
2022/11/24 01:06:34;;;;;;;6.00;3.80;;;;;;;;;;5094302;28;20020;-68
2022/11/24 01:09:01;;;;;;;4.32;3.80;;;;;;;;;;5093958;28;20023;-67
2022/11/24 01:14:18;;;;;;;8.00;4.88;;;;;;;;;;5094220;28;20124;-68
2022/11/24 01:16:43;;;;;;;4.80;3.42;;;;;;;;;;5093791;28;20518;-64
2022/11/24 01:19:08;;;;;;;8.15;4.38;;;;;;;;;;5093869;28;20016;-66
2022/11/24 01:21:34;;;;;;;10.32;4.72;;;;;;;;;;5093445;28;20422;-67
2022/11/24 01:23:59;;;;;;;8.77;4.10;;;;;;;;;;5094017;28;20091;-67
2022/11/24 01:26:25;;;;;;;6.75;4.20;;;;;;;;;;5093732;28;20020;-68
2022/11/24 01:28:54;;;;;;;6.30;4.22;;;;;;;;;;5093794;28;20065;-68
2022/11/24 01:31:20;;;;;;;5.30;3.60;;;;;;;;;;5093765;28;20035;-67
2022/11/24 01:33:45;;;;;;;9.38;4.55;;;;;;;;;;5094101;28;20023;-66
2022/11/24 01:36:10;;;;;;;6.50;4.55;;;;;;;;;;5093878;28;20515;-68
2022/11/24 01:38:36;;;;;;;5.10;3.45;;;;;;;;;;5093489;28;20012;-68
2022/11/24 01:41:06;;;;;;;6.00;4.50;;;;;;;;;;5108958;28;20563;-66
2022/11/24 01:43:31;;;;;;;6.75;3.92;;;;;;;;;;5093439;28;20491;-66
2022/11/24 01:46:00;;;;;;;5.93;3.55;;;;;;;;;;5108953;28;20023;-66
2022/11/24 01:48:28;;;;;;;8.35;3.58;;;;;;;;;;5109120;28;20460;-68
2022/11/24 01:51:07;;;;;;;5.50;3.63;;;;;;;;;;5093380;28;20095;-66
2022/11/24 01:53:32;;;;;;;5.40;3.42;;;;;;;;;;5093366;28;20380;-66
2022/11/24 01:55:58;;;;;;;5.97;4.10;;;;;;;;;;5093563;28;20016;-67
2022/11/24 01:58:26;;;;;;;5.07;3.30;;;;;;;;;;5108335;28;20048;-67
2022/11/24 02:00:52;;;;;;;7.88;4.55;;;;;;;;;;5092979;28;20365;-66
2022/11/24 02:03:33;;;;;;;5.45;4.07;;;;;;;;;;5093354;28;20019;-68
2022/11/24 02:06:01;;;;;;;5.72;3.75;;;;;;;;;;5093066;28;20042;-67
2022/11/24 02:08:47;;;;;;;8.43;3.65;;;;;;;;;;5092937;28;20024;-68
2022/11/24 02:11:12;;;;;;;7.82;4.20;;;;;;;;;;5070408;28;20115;-67
2022/11/24 02:13:39;;;;;;;5.78;4.35;;;;;;;;;;5091988;28;20051;-67
2022/11/24 02:16:06;;;;;;;8.05;4.38;;;;;;;;;;5092731;28;20035;-67
2022/11/24 02:18:32;;;;;;;5.22;4.03;;;;;;;;;;5092933;28;20024;-66
2022/11/24 02:20:58;;;;;;;7.63;4.35;;;;;;;;;;5092523;28;20020;-67
2022/11/24 02:23:28;;;;;;;6.20;4.55;;;;;;;;;;5092853;28;20087;-69
2022/11/24 02:25:56;;;;;;;7.72;4.75;;;;;;;;;;5092653;28;20039;-68
2022/11/24 02:28:22;;;;;;;4.80;3.38;;;;;;;;;;5092736;28;20059;-67
2022/11/24 02:30:48;;;;;;;7.72;4.97;;;;;;;;;;5092883;28;20444;-66
2022/11/24 02:33:14;;;;;;;6.07;3.80;;;;;;;;;;5092644;28;20032;-67
2022/11/24 02:35:39;;;;;;;6.32;4.55;;;;;;;;;;5092466;28;20016;-68
2022/11/24 02:38:05;;;;;;;6.32;4.68;;;;;;;;;;5092763;28;20032;-67
2022/11/24 02:40:30;;;;;;;8.20;4.97;;;;;;;;;;5092590;28;20016;-69
2022/11/24 02:43:04;;;;;;;9.18;4.13;;;;;;;;;;5092377;28;20130;-69
2022/11/24 02:45:30;;;;;;;9.07;5.05;;;;;;;;;;5092807;28;20468;-67
2022/11/24 02:47:56;;;;;;;5.00;3.78;;;;;;;;;;5092290;28;20016;-68
2022/11/24 02:50:21;;;;;;;4.78;3.85;;;;;;;;;;5092096;28;20473;-68
2022/11/24 02:52:47;;;;;;;5.93;4.47;;;;;;;;;;5092533;28;20019;-69
2022/11/24 02:55:12;;;;;;;7.82;5.13;;;;;;;;;;5092070;28;20486;-68
2022/11/24 02:57:38;;;;;;;10.57;4.85;;;;;;;;;;5107794;28;20040;-69
2022/11/24 03:00:03;;;;;;;6.75;4.68;;;;;;;;;;5092241;28;20032;-69
2022/11/24 03:02:29;;;;;;;9.18;4.18;;;;;;;;;;5092159;28;20040;-68
2022/11/24 03:04:54;;;;;;;7.00;4.85;;;;;;;;;;5092177;28;20461;-69
2022/11/24 03:07:19;;;;;;;7.93;4.05;;;;;;;;;;5092083;28;20016;-68
2022/11/24 03:09:45;;;;;;;10.27;5.22;;;;;;;;;;5092387;28;20016;-66
2022/11/24 03:12:10;;;;;;;7.55;3.88;;;;;;;;;;5107950;28;20020;-68
2022/11/24 03:14:36;;;;;;;6.93;4.47;;;;;;;;;;5091887;28;20035;-70
2022/11/24 03:17:01;;;;;;;5.53;3.95;;;;;;;;;;5091801;28;20012;-67
2022/11/24 03:19:27;;;;;;;8.40;4.30;;;;;;;;;;5091986;28;20472;-68
2022/11/24 03:21:52;;;;;;;7.82;5.00;;;;;;;;;;5107456;28;20404;-67
2022/11/24 03:24:17;;;;;;;9.07;4.95;;;;;;;;;;5093440;28;20095;-68
2022/11/24 03:26:43;;;;;;;7.63;4.70;;;;;;;;;;5096185;28;20024;-69
2022/11/24 03:29:08;;;;;;;7.15;4.60;;;;;;;;;;5111680;28;20016;-67
2022/11/24 03:31:34;;;;;;;8.80;4.35;;;;;;;;;;5096040;28;20054;-69
2022/11/24 03:33:59;;;;;;;8.65;5.28;;;;;;;;;;5111586;28;20012;-70
2022/11/24 03:36:25;;;;;;;7.88;4.60;;;;;;;;;;5096126;28;20109;-69
2022/11/24 03:38:50;;;;;;;8.00;5.85;;;;;;;;;;5095977;28;20034;-69
2022/11/24 03:41:16;;;;;;;9.13;5.63;;;;;;;;;;5111610;28;20032;-69
2022/11/24 03:43:41;;;;;;;15.00;5.90;;;;;;;;;;5096307;28;20031;-68
2022/11/24 03:46:07;;;;;;;11.38;6.32;;;;;;;;;;5111584;28;20035;-69
2022/11/24 03:48:32;;;;;;;8.20;5.30;;;;;;;;;;5096199;28;20032;-69
2022/11/24 03:50:58;;;;;;;6.82;4.45;;;;;;;;;;5111172;28;20224;-68
2022/11/24 03:53:25;;;;;;;8.43;4.55;;;;;;;;;;5095565;28;20059;-69
2022/11/24 03:55:50;;;;;;;12.48;6.03;;;;;;;;;;5111292;28;20016;-68
2022/11/24 03:58:16;;;;;;;11.80;6.40;;;;;;;;;;5111177;28;20109;-68
2022/11/24 04:00:41;;;;;;;6.57;4.80;;;;;;;;;;5095605;28;20042;-69
2022/11/24 04:03:07;;;;;;;7.80;4.82;;;;;;;;;;5110856;28;20036;-69
2022/11/24 04:05:35;;;;;;;6.40;4.40;;;;;;;;;;5095335;28;20051;-71
2022/11/24 04:08:02;;;;;;;7.85;4.88;;;;;;;;;;5111074;28;20016;-68
2022/11/24 04:10:28;;;;;;;6.47;4.65;;;;;;;;;;5111250;28;20016;-68
2022/11/24 04:12:53;;;;;;;7.43;4.68;;;;;;;;;;5095279;28;20487;-69
2022/11/24 04:15:19;;;;;;;8.75;4.63;;;;;;;;;;5095007;28;20496;-68
2022/11/24 04:17:45;;;;;;;9.55;4.88;;;;;;;;;;5110985;28;20017;-67
2022/11/24 04:20:11;;;;;;;7.78;4.13;;;;;;;;;;5095243;28;20099;-67
2022/11/24 04:22:36;;;;;;;8.00;4.57;;;;;;;;;;5094967;28;20160;-69
2022/11/24 04:25:02;;;;;;;6.80;4.47;;;;;;;;;;5110591;28;20020;-69
2022/11/24 04:27:28;;;;;;;5.63;4.05;;;;;;;;;;5094732;28;20024;-70
2022/11/24 04:29:53;;;;;;;6.35;4.13;;;;;;;;;;5094715;28;20020;-70
2022/11/24 04:32:18;;;;;;;6.18;3.78;;;;;;;;;;5110422;28;20020;-68
2022/11/24 04:34:44;;;;;;;6.97;4.20;;;;;;;;;;5094710;28;20024;-70
2022/11/24 04:37:09;;;;;;;5.90;3.70;;;;;;;;;;5093687;28;20066;-67
2022/11/24 04:39:35;;;;;;;6.75;4.05;;;;;;;;;;5110520;28;20021;-70
2022/11/24 04:42:00;;;;;;;6.55;4.40;;;;;;;;;;5094476;28;20388;-69
2022/11/24 04:44:25;;;;;;;6.13;3.40;;;;;;;;;;5094725;28;20378;-69
2022/11/24 04:46:51;;;;;;;7.85;3.70;;;;;;;;;;5094593;28;20016;-70
2022/11/24 04:49:16;;;;;;;8.38;4.78;;;;;;;;;;5094146;28;20389;-69
2022/11/24 04:51:42;;;;;;;7.38;4.40;;;;;;;;;;5094365;28;20095;-71
2022/11/24 04:54:09;;;;;;;6.82;4.25;;;;;;;;;;5094484;28;20480;-70
2022/11/24 04:56:34;;;;;;;5.25;3.97;;;;;;;;;;5094168;28;20533;-69
2022/11/24 04:59:00;;;;;;;7.88;4.57;;;;;;;;;;5093781;28;20123;-69
2022/11/24 05:01:26;;;;;;;9.63;4.78;;;;;;;;;;5093951;28;20028;-73
2022/11/24 05:03:55;;;;;;;7.38;4.30;;;;;;;;;;5093927;28;20016;-71
2022/11/24 05:06:20;;;;;;;8.60;4.15;;;;;;;;;;5094183;28;20016;-71
2022/11/24 05:08:47;;;;;;;5.82;3.47;;;;;;;;;;5093808;28;20150;-70
2022/11/24 05:11:13;;;;;;;6.07;4.28;;;;;;;;;;5093811;28;20032;-72
2022/11/24 05:13:39;;;;;;;9.63;4.22;;;;;;;;;;5109439;28;20111;-71
2022/11/24 05:16:04;;;;;;;6.65;4.07;;;;;;;;;;5093726;28;20016;-69
2022/11/24 05:18:30;;;;;;;7.05;3.90;;;;;;;;;;5109325;28;20472;-72
2022/11/24 05:20:56;;;;;;;6.22;3.83;;;;;;;;;;5093941;28;20032;-69
2022/11/24 05:23:21;;;;;;;5.45;3.40;;;;;;;;;;5094159;28;20031;-72
2022/11/24 05:25:47;;;;;;;5.75;3.85;;;;;;;;;;5093438;28;20045;-71
2022/11/24 05:28:12;;;;;;;9.73;3.63;;;;;;;;;;5109340;28;20024;-71
2022/11/24 05:30:38;;;;;;;8.18;4.70;;;;;;;;;;5108875;28;20074;-69
2022/11/24 05:33:08;;;;;;;4.82;3.55;;;;;;;;;;5093424;28;20024;-70
2022/11/24 05:35:34;;;;;;;4.95;4.00;;;;;;;;;;5093471;28;20031;-70
2022/11/24 05:38:00;;;;;;;6.78;3.88;;;;;;;;;;5092022;28;20012;-72
2022/11/24 05:40:25;;;;;;;7.07;4.10;;;;;;;;;;5093326;28;20025;-71
2022/11/24 05:42:50;;;;;;;6.65;3.85;;;;;;;;;;5093013;28;20060;-71
2022/11/24 05:45:17;;;;;;;8.02;3.83;;;;;;;;;;5092779;28;20020;-73
2022/11/24 05:47:43;;;;;;;6.32;3.10;;;;;;;;;;5107806;28;20047;-72
2022/11/24 05:50:09;;;;;;;5.65;3.35;;;;;;;;;;5093234;28;20044;-71
2022/11/24 05:52:34;;;;;;;9.73;4.53;;;;;;;;;;5109258;28;20024;-70
2022/11/24 05:55:00;;;;;;;6.05;4.03;;;;;;;;;;5108055;28;20023;-70
2022/11/24 05:57:25;;;;;;;6.10;3.65;;;;;;;;;;5092516;28;20389;-71
2022/11/24 05:59:50;;;;;;;3.67;2.30;;;;;;;;;;5108516;28;20016;-74
2022/11/24 06:02:16;;;;;;;9.05;3.17;;;;;;;;;;5092435;28;20469;-70
2022/11/24 06:04:41;;;;;;;5.93;3.22;;;;;;;;;;5092483;28;20024;-74
2022/11/24 06:07:08;;;;;;;6.57;3.03;;;;;;;;;;5092205;28;20441;-72
2022/11/24 06:09:37;;;;;;;4.78;2.83;;;;;;;;;;5092484;28;20189;-70
2022/11/24 06:12:03;;;;;;;5.13;3.22;;;;;;;;;;5092373;28;20047;-71
2022/11/24 06:14:28;;;;;;;4.25;3.03;;;;;;;;;;5107933;28;20046;-71
2022/11/24 06:16:53;;;;;;;5.93;4.03;;;;;;;;;;5092410;28;20028;-73
2022/11/24 06:19:19;;;;;;;10.30;3.83;;;;;;;;;;5092587;28;20163;-72
2022/11/24 06:21:44;;;;;;;4.80;3.83;;;;;;;;;;5092182;28;20085;-71
2022/11/24 06:24:10;;;;;;;6.90;3.63;;;;;;;;;;5091742;28;20019;-71
2022/11/24 06:26:35;;;;;;;5.57;3.38;;;;;;;;;;5091934;28;20019;-71
2022/11/24 06:29:01;;;;;;;6.88;3.92;;;;;;;;;;5091492;28;20051;-73
2022/11/24 06:31:27;;;;;;;5.65;3.58;;;;;;;;;;5107335;28;20024;-72
2022/11/24 06:33:52;;;;;;;6.07;3.72;;;;;;;;;;5091454;28;20008;-73
2022/11/24 06:36:17;;;;;;;7.53;4.05;;;;;;;;;;5107394;28;20590;-71
2022/11/24 06:38:43;;;;;;;7.47;3.90;;;;;;;;;;5092168;28;20237;-72
2022/11/24 06:41:10;;;;;;;8.10;4.65;;;;;;;;;;5091121;28;20016;-70
2022/11/24 06:43:36;;;;;;;6.00;3.03;;;;;;;;;;5091648;28;20541;-70
2022/11/24 06:46:02;;;;;;;5.47;3.55;;;;;;;;;;5091945;28;20052;-71
2022/11/24 06:48:28;;;;;;;7.43;3.90;;;;;;;;;;5092798;28;20024;-70
2022/11/24 06:50:57;;;;;;;5.40;4.03;;;;;;;;;;5107104;28;20060;-74
2022/11/24 06:53:22;;;;;;;6.22;3.75;;;;;;;;;;5091737;28;20043;-73
2022/11/24 06:55:48;;;;;;;8.65;4.13;;;;;;;;;;5091284;28;20062;-70
2022/11/24 06:58:13;;;;;;;4.60;2.30;;;;;;;;;;5106532;28;20052;-74
2022/11/24 07:00:39;;;;;;;8.52;3.65;;;;;;;;;;5091200;28;20057;-74
2022/11/24 07:03:04;;;;;;;6.93;4.30;;;;;;;;;;5091031;28;20307;-70
2022/11/24 07:05:30;;;;;;;5.95;4.30;;;;;;;;;;5106265;28;20072;-73
2022/11/24 07:07:57;;;;;;;6.97;4.50;;;;;;;;;;5107082;28;20012;-70
2022/11/24 07:10:23;;;;;;;6.70;3.47;;;;;;;;;;5091476;28;20020;-72
2022/11/24 07:12:48;;;;;;;6.03;4.05;;;;;;;;;;5106713;28;20052;-71
2022/11/24 07:15:13;;;;;;;7.68;4.25;;;;;;;;;;5106443;28;20084;-74
2022/11/24 07:17:39;;;;;;;6.72;4.15;;;;;;;;;;5090873;28;20413;-73
2022/11/24 07:20:05;;;;;;;7.47;4.20;;;;;;;;;;5090705;28;20055;-73
2022/11/24 07:22:30;;;;;;;8.60;5.22;;;;;;;;;;5106439;28;20032;-75
2022/11/24 07:24:56;;;;;;;8.55;4.88;;;;;;;;;;5090555;28;20031;-66
2022/11/24 07:27:21;;;;;;;6.95;4.22;;;;;;;;;;5090656;28;20444;-73
2022/11/24 07:29:46;;;;;;;5.47;4.22;;;;;;;;;;5106348;28;20015;-74
2022/11/24 07:32:12;;;;;;;6.38;4.05;;;;;;;;;;5106895;28;20650;-74
2022/11/24 07:34:37;;;;;;;6.28;4.10;;;;;;;;;;5091630;28;20009;-72
2022/11/24 07:37:02;;;;;;;5.63;2.85;;;;;;;;;;5105778;28;20035;-74
2022/11/24 07:39:28;;;;;;;5.25;4.35;;;;;;;;;;5105960;28;20101;-73
2022/11/24 07:41:53;;;;;;;5.28;2.95;;;;;;;;;;5106373;28;20036;-71
2022/11/24 07:44:19;;;;;;;6.10;3.78;;;;;;;;;;5090871;28;20082;-73
2022/11/24 07:46:44;;;;;;;10.73;3.53;;;;;;;;;;5090796;28;20020;-73
2022/11/24 07:49:09;;;;;;;5.97;3.65;;;;;;;;;;5106468;28;20019;-73
2022/11/24 07:51:35;;;;;;;5.18;2.75;;;;;;;;;;5106278;28;20027;-73
2022/11/24 07:54:01;;;;;;;5.78;3.13;;;;;;;;;;5090943;28;20020;-74
2022/11/24 07:56:26;;;;;;;6.13;3.97;;;;;;;;;;5090631;28;20016;-71
2022/11/24 07:58:52;;;;;;;5.57;3.50;;;;;;;;;;5105981;28;20086;-74
2022/11/24 08:01:17;;;;;;;5.97;3.50;;;;;;;;;;5091100;28;20073;-71
2022/11/24 08:03:43;;;;;;;4.63;3.20;;;;;;;;;;5091062;28;20408;-72
2022/11/24 08:06:09;;;;;;;6.75;3.63;;;;;;;;;;5106419;28;20012;-74
2022/11/24 08:08:34;;;;;;;4.50;3.17;;;;;;;;;;5090824;28;20456;-74
2022/11/24 08:11:07;;;;;;;4.90;3.38;;;;;;;;;;5091286;28;20460;-74
2022/11/24 08:13:33;;;;;;;6.13;3.70;;;;;;;;;;5109588;28;20016;-74
2022/11/24 08:15:58;;;;;;;4.88;3.58;;;;;;;;;;5094744;28;20101;-71
2022/11/24 08:18:23;;;;;;;5.72;3.22;;;;;;;;;;5094460;28;20422;-75
2022/11/24 08:20:49;;;;;;;6.47;3.25;;;;;;;;;;5098359;28;20031;-74
2022/11/24 08:23:14;;;;;;;4.25;2.63;;;;;;;;;;5114832;28;20055;-73
2022/11/24 08:25:40;;;;;;;5.82;3.60;;;;;;;;;;5096449;28;20376;-74
2022/11/24 08:28:05;;;;;;;6.88;3.85;;;;;;;;;;5109944;28;20139;-74
2022/11/24 08:30:30;;;;;;;5.50;2.90;;;;;;;;;;5110146;28;20017;-74
2022/11/24 08:32:59;;;;;;;6.15;3.30;;;;;;;;;;5094413;28;20510;-67
2022/11/24 08:35:25;;;;;;;6.43;3.83;;;;;;;;;;5094017;28;20043;-73
2022/11/24 08:37:50;;;;;;;8.20;4.18;;;;;;;;;;5094737;28;20020;-72
2022/11/24 08:40:16;;;;;;;5.55;3.67;;;;;;;;;;5093874;28;20061;-72
2022/11/24 08:42:41;;;;;;;4.60;2.92;;;;;;;;;;5093851;28;20384;-71
2022/11/24 08:45:07;;;;;;;6.05;2.92;;;;;;;;;;5094176;28;20429;-73
2022/11/24 08:47:32;;;;;;;7.38;2.85;;;;;;;;;;5093876;28;20061;-73
2022/11/24 08:49:57;;;;;;;6.20;3.65;;;;;;;;;;5094122;28;20027;-72
2022/11/24 08:52:23;;;;;;;5.82;3.60;;;;;;;;;;5094068;28;20031;-72
2022/11/24 08:54:49;;;;;;;6.70;4.30;;;;;;;;;;5109134;28;20480;-72
2022/11/24 08:57:14;;;;;;;3.95;2.78;;;;;;;;;;5093362;28;20020;-72
2022/11/24 08:59:40;;;;;;;6.28;3.17;;;;;;;;;;5109971;28;20124;-73
2022/11/24 09:02:05;;;;;;;6.13;3.85;;;;;;;;;;5094031;28;20020;-72
2022/11/24 09:04:31;;;;;;;5.57;4.03;;;;;;;;;;5109353;28;20020;-72
2022/11/24 09:06:56;;;;;;;3.42;2.50;;;;;;;;;;5093499;28;20020;-67
2022/11/24 09:09:22;;;;;;;6.38;3.75;;;;;;;;;;5093288;28;20027;-72
2022/11/24 09:11:47;;;;;;;6.30;4.32;;;;;;;;;;5093163;28;20102;-72
2022/11/24 09:14:12;;;;;;;7.78;4.65;;;;;;;;;;5109503;28;20028;-69
2022/11/24 09:16:38;;;;;;;4.90;3.42;;;;;;;;;;5093791;28;20103;-71
2022/11/24 09:19:05;;;;;;;7.68;3.78;;;;;;;;;;5093807;28;20035;-71
2022/11/24 09:21:31;;;;;;;3.83;2.88;;;;;;;;;;5093342;28;20085;-73
2022/11/24 09:23:56;;;;;;;5.65;3.00;;;;;;;;;;5109075;28;20016;-72
2022/11/24 09:26:23;;;;;;;6.45;3.33;;;;;;;;;;5108655;28;20103;-72
2022/11/24 09:28:53;;;;;;;5.93;2.67;;;;;;;;;;5093159;28;20099;-69
2022/11/24 09:31:18;;;;;;;4.55;3.20;;;;;;;;;;5108256;28;20421;-74
2022/11/24 09:33:44;;;;;;;3.95;2.63;;;;;;;;;;5092856;28;20028;-73
2022/11/24 09:36:11;;;;;;;3.88;2.58;;;;;;;;;;5093064;28;20015;-73
2022/11/24 09:38:36;;;;;;;4.13;1.80;;;;;;;;;;5093294;28;20024;-74
2022/11/24 09:41:14;;;;;;;3.58;2.42;;;;;;;;;;5092726;28;20019;-74
2022/11/24 09:43:58;;;;;;;5.32;3.22;;;;;;;;;;5108727;28;20016;-74
2022/11/24 09:46:59;;;;;;;3.10;2.35;;;;;;;;;;5108826;28;20024;-70
2022/11/24 09:49:36;;;;;;;3.47;2.40;;;;;;;;;;5070249;28;20114;-74
2022/11/24 09:52:06;;;;;;;4.63;2.35;;;;;;;;;;5085658;28;20135;-73
2022/11/24 09:54:33;;;;;;;3.25;1.88;;;;;;;;;;5108387;28;20024;-72
2022/11/24 09:57:00;;;;;;;5.10;1.70;;;;;;;;;;5107954;28;20035;-72
2022/11/24 09:59:26;;;;;;;3.97;1.63;;;;;;;;;;5108305;28;20384;-73
2022/11/24 10:01:52;;;;;;;2.75;1.77;;;;;;;;;;5108451;28;20043;-74
2022/11/24 10:04:34;;;;;;;3.38;2.03;;;;;;;;;;5092619;28;20039;-73
2022/11/24 10:07:18;;;;;;;3.97;2.30;;;;;;;;;;5091933;28;20473;-73
2022/11/24 10:09:46;;;;;;;2.63;1.60;;;;;;;;;;5108013;28;20016;-71
2022/11/24 10:12:18;;;;;;;4.50;2.28;;;;;;;;;;5108409;28;20020;-73
2022/11/24 10:14:52;;;;;;;2.25;0.82;;;;;;;;;;5092983;28;20048;-70
2022/11/24 10:17:29;;;;;;;5.75;2.10;;;;;;;;;;5108255;28;20471;-72
2022/11/24 10:20:21;;;;;;;3.83;1.70;;;;;;;;;;5108125;28;20028;-72
2022/11/24 10:22:52;;;;;;;2.97;1.58;;;;;;;;;;5092096;28;20039;-73
2022/11/24 10:25:23;;;;;;;5.55;3.03;;;;;;;;;;5092013;28;20446;-73
2022/11/24 10:27:54;;;;;;;4.00;2.30;;;;;;;;;;5107808;28;20030;-74
2022/11/24 10:30:21;;;;;;;3.00;1.83;;;;;;;;;;5107612;28;20357;-73
2022/11/24 10:32:53;;;;;;;4.18;2.20;;;;;;;;;;5107567;28;20103;-73
2022/11/24 10:35:21;;;;;;;3.38;2.08;;;;;;;;;;5106946;28;20349;-75
2022/11/24 10:37:54;;;;;;;2.97;2.15;;;;;;;;;;5092382;28;20491;-72
2022/11/24 10:40:38;;;;;;;2.95;2.03;;;;;;;;;;5107404;28;20047;-70
2022/11/24 10:43:09;;;;;;;4.15;1.75;;;;;;;;;;5091556;28;20165;-76
2022/11/24 10:45:36;;;;;;;4.20;2.15;;;;;;;;;;5091995;28;20032;-73
2022/11/24 10:48:02;;;;;;;3.90;2.38;;;;;;;;;;5107298;28;20016;-73
2022/11/24 10:50:32;;;;;;;6.03;2.63;;;;;;;;;;5091490;28;20051;-73
2022/11/24 10:53:12;;;;;;;3.08;1.75;;;;;;;;;;5107058;28;20022;-73
2022/11/24 10:55:53;;;;;;;3.30;1.83;;;;;;;;;;5091395;28;20126;-71
2022/11/24 10:58:20;;;;;;;3.80;1.75;;;;;;;;;;5106961;28;20056;-73
2022/11/24 11:00:45;;;;;;;6.82;1.50;;;;;;;;;;5107240;28;20016;-72
2022/11/24 11:03:15;;;;;;;2.47;1.55;;;;;;;;;;5091501;28;20036;-73
2022/11/24 11:05:42;;;;;;;4.82;2.08;;;;;;;;;;5107204;28;20016;-73
2022/11/24 11:08:16;;;;;;;2.95;2.00;;;;;;;;;;5091568;28;20020;-72
2022/11/24 11:10:43;;;;;;;3.35;1.83;;;;;;;;;;5090832;28;20067;-73
2022/11/24 11:13:22;;;;;;;3.25;2.05;;;;;;;;;;5105748;28;20020;-73
2022/11/24 11:15:47;;;;;;;4.03;2.00;;;;;;;;;;5090755;28;20133;-72
2022/11/24 11:18:16;;;;;;;3.45;2.30;;;;;;;;;;5092032;28;20024;-72
2022/11/24 11:21:08;;;;;;;3.42;2.17;;;;;;;;;;5091214;28;20472;-70
2022/11/24 11:23:34;;;;;;;3.75;1.80;;;;;;;;;;5090189;28;20054;-71
2022/11/24 11:26:21;;;;;;;3.35;1.80;;;;;;;;;;5091173;28;20020;-72
2022/11/24 11:29:05;;;;;;;3.33;1.70;;;;;;;;;;5091355;28;20027;-73
2022/11/24 11:31:31;;;;;;;4.97;1.80;;;;;;;;;;5091070;28;20367;-71
2022/11/24 11:34:17;;;;;;;4.63;1.40;;;;;;;;;;5091074;28;20024;-71
2022/11/24 11:36:43;;;;;;;;;;;;;;;;;;5091641;28;20034;-75
2022/11/24 11:39:27;;;;;;;2.70;1.70;;;;;;;;;;5090414;28;19904;-72
2022/11/24 11:42:09;;;;;;;4.47;2.05;;;;;;;;;;5090776;28;20118;-71
2022/11/24 11:44:47;;;;;;;1.90;1.48;;;;;;;;;;5106294;28;20024;-73
2022/11/24 11:47:16;;;;;;;4.70;1.75;;;;;;;;;;5093432;28;20024;-74
2022/11/24 11:49:43;;;;;;;6.20;1.60;;;;;;;;;;5099039;28;20084;-73
2022/11/24 11:52:15;;;;;;;1.27;0.70;;;;;;;;;;5096764;28;20494;-73
2022/11/24 11:54:40;;;;;;;3.53;1.35;;;;;;;;;;5097893;28;20442;-70
2022/11/24 11:57:24;;;;;;;3.03;1.52;;;;;;;;;;5109861;28;20056;-73
2022/11/24 11:59:58;;;;;;;7.22;1.80;;;;;;;;;;5094952;28;20022;-71
2022/11/24 12:02:26;;;;;;;3.85;1.50;;;;;;;;;;5094487;28;20024;-71
2022/11/24 12:04:55;;;;;;;4.25;1.85;;;;;;;;;;5095504;28;20020;-71
2022/11/24 12:07:20;;;;;;;3.13;1.50;;;;;;;;;;5110576;28;20377;-72
2022/11/24 12:09:46;;;;;;;2.13;1.40;;;;;;;;;;5094387;28;20042;-72
2022/11/24 12:12:26;;;;;;;8.05;1.70;;;;;;;;;;5094643;28;20016;-73
2022/11/24 12:14:57;;;;;;;1.55;1.05;;;;;;;;;;5094664;28;20024;-74
2022/11/24 12:17:29;;;;;;;2.72;1.00;;;;;;;;;;5094600;28;20012;-74
2022/11/24 12:19:54;;;;;;;2.38;1.50;;;;;;;;;;5094896;28;20077;-72
2022/11/24 12:22:20;;;;;;;1.50;1.10;;;;;;;;;;5094404;28;20032;-74
2022/11/24 12:24:53;;;;;;;1.63;1.00;;;;;;;;;;5094347;28;20523;-73
2022/11/24 12:27:24;;;;;;;1.73;1.25;;;;;;;;;;5094334;28;20073;-71
2022/11/24 12:29:49;;;;;;;1.50;0.93;;;;;;;;;;5094342;28;20027;-73
2022/11/24 12:32:20;;;;;;;2.28;1.10;;;;;;;;;;5094431;28;20017;-74
2022/11/24 12:35:04;;;;;;;3.33;1.40;;;;;;;;;;5093999;28;20468;-72
2022/11/24 12:37:39;;;;;;;3.50;1.40;;;;;;;;;;5093971;28;20407;-71
2022/11/24 12:40:12;;;;;;;1.80;1.00;;;;;;;;;;5109779;28;20115;-73
2022/11/24 12:42:56;;;;;;;2.63;1.23;;;;;;;;;;5110015;28;20761;-75
2022/11/24 12:45:27;;;;;;;3.13;1.13;;;;;;;;;;5093877;28;20020;-73
2022/11/24 12:47:55;;;;;;;0.75;0.32;;;;;;;;;;5094336;28;20016;-73
2022/11/24 12:50:23;;;;;;;2.05;1.10;;;;;;;;;;5094030;28;20368;-72
2022/11/24 12:52:50;;;;;;;1.98;1.20;;;;;;;;;;5095013;28;20381;-73
2022/11/24 12:55:20;;;;;;;2.78;1.30;;;;;;;;;;5094287;28;20031;-73
2022/11/24 12:58:02;;;;;;;2.22;1.40;;;;;;;;;;5093338;28;20055;-72
2022/11/24 13:00:35;;;;;;;3.67;1.83;;;;;;;;;;5109708;28;20024;-73
2022/11/24 13:03:18;;;;;;;2.15;1.40;;;;;;;;;;5093405;28;20491;-73
2022/11/24 13:06:09;;;;;;;2.13;1.30;;;;;;;;;;5092788;28;20114;-74
2022/11/24 13:08:35;;;;;;;3.70;1.38;;;;;;;;;;5094304;28;20062;-72
2022/11/24 13:11:19;;;;;;;2.20;0.85;;;;;;;;;;5109271;28;20027;-73
2022/11/24 13:13:58;;;;;;;2.13;1.13;;;;;;;;;;5109447;28;20024;-72
2022/11/24 13:16:25;;;;;;;2.70;0.93;;;;;;;;;;5109658;28;20020;-73
2022/11/24 13:18:55;;;;;;;1.70;1.10;;;;;;;;;;5109816;28;20024;-71
2022/11/24 13:21:30;;;;;;;1.63;0.82;;;;;;;;;;5108536;28;20050;-73
2022/11/24 13:24:05;;;;;;;5.03;1.50;;;;;;;;;;5093730;28;20031;-74
2022/11/24 13:26:31;;;;;;;2.63;1.10;;;;;;;;;;5094033;28;20120;-74
2022/11/24 13:28:56;;;;;;;2.67;1.30;;;;;;;;;;5093705;28;20101;-72
2022/11/24 13:31:21;;;;;;;1.40;0.60;;;;;;;;;;5093011;28;20103;-73
2022/11/24 13:33:47;;;;;;;2.10;1.15;;;;;;;;;;5093610;28;20020;-73
2022/11/24 13:36:21;;;;;;;2.88;1.50;;;;;;;;;;5093442;28;20452;-73
2022/11/24 13:38:46;;;;;;;0.80;0.63;;;;;;;;;;5093189;28;20448;-74
2022/11/24 13:41:30;;;;;;;1.85;1.15;;;;;;;;;;5108476;28;20047;-75
2022/11/24 13:44:14;;;;;;;2.95;1.00;;;;;;;;;;5108594;28;20111;-73
2022/11/24 13:46:59;;;;;;;2.08;0.50;;;;;;;;;;5108785;28;20024;-75
2022/11/24 13:49:35;;;;;;;2.08;1.17;;;;;;;;;;5093056;28;20468;-73
2022/11/24 13:52:21;;;;;;;3.20;1.20;;;;;;;;;;5092709;28;20330;-69
2022/11/24 13:54:46;;;;;;;2.28;1.20;;;;;;;;;;5092031;28;20042;-73
2022/11/24 13:57:34;;;;;;;3.08;1.35;;;;;;;;;;5092387;28;20028;-74
2022/11/24 14:00:00;;;;;;;3.10;1.23;;;;;;;;;;5108109;28;20494;-72
2022/11/24 14:02:26;;;;;;;1.10;0.77;;;;;;;;;;5092289;28;20036;-74
2022/11/24 14:04:51;;;;;;;3.08;0.98;;;;;;;;;;5092481;28;20044;-71
2022/11/24 14:07:18;;;;;;;2.42;1.50;;;;;;;;;;5092105;28;20048;-72
2022/11/24 14:09:45;;;;;;;1.77;1.08;;;;;;;;;;5091252;28;20069;-72
2022/11/24 14:12:21;;;;;;;2.08;1.10;;;;;;;;;;5108107;28;20015;-73
2022/11/24 14:14:47;;;;;;;3.30;1.70;;;;;;;;;;5107052;28;20020;-73
2022/11/24 14:17:18;;;;;;;1.85;1.13;;;;;;;;;;5092089;28;20028;-73
2022/11/24 14:19:44;;;;;;;2.72;1.10;;;;;;;;;;5107497;28;20026;-73
2022/11/24 14:22:15;;;;;;;3.58;1.20;;;;;;;;;;5107783;28;20476;-72
2022/11/24 14:24:43;;;;;;;3.70;1.45;;;;;;;;;;5092659;28;20013;-73
2022/11/24 14:27:20;;;;;;;1.45;0.98;;;;;;;;;;5107005;28;20020;-73
2022/11/24 14:29:53;;;;;;;1.60;1.00;;;;;;;;;;5107420;28;20016;-73
2022/11/24 14:32:20;;;;;;;2.00;1.23;;;;;;;;;;5091815;28;20434;-76
2022/11/24 14:34:46;;;;;;;1.75;1.30;;;;;;;;;;5092056;28;20092;-76
2022/11/24 14:37:11;;;;;;;1.88;1.10;;;;;;;;;;5106992;28;20099;-73
2022/11/24 14:39:40;;;;;;;1.77;1.13;;;;;;;;;;5092288;28;20349;-74
2022/11/24 14:42:14;;;;;;;3.83;1.25;;;;;;;;;;5107569;28;20028;-73
2022/11/24 14:44:40;;;;;;;2.20;1.40;;;;;;;;;;5092323;28;20077;-72
2022/11/24 14:47:25;;;;;;;3.30;1.67;;;;;;;;;;5091864;28;20066;-73
2022/11/24 14:49:51;;;;;;;1.80;1.13;;;;;;;;;;5087063;28;20476;-74
2022/11/24 14:52:18;;;;;;;3.67;1.75;;;;;;;;;;5092164;28;20027;-74